Time;durP1;ratioP1;P1;durP2;ratioP2;P2;SDS_P1;SDS_P2;PMS_P1;PMS_P2;Temp;Humidity;BMP_temperature;BMP_pressure;BME280_temperature;BME280_humidity;BME280_pressure;Samples;Min_cycle;Max_cycle;Signal;HPM_P1;HPM_P2
2023/07/01 00:01:00;;;;;;;5.23;4.70;;;21.80;73.30;;;;;;4839952;29;20199;-88
2023/07/01 00:03:30;;;;;;;5.27;4.77;;;21.90;73.50;;;;;;4840864;29;20493;-88
2023/07/01 00:05:58;;;;;;;5.20;4.80;;;21.80;73.10;;;;;;4864442;29;20539;-85
2023/07/01 00:08:25;;;;;;;4.93;4.50;;;21.80;73.40;;;;;;4879820;29;21115;-88
2023/07/01 00:10:51;;;;;;;5.97;5.10;;;21.80;72.40;;;;;;4874544;28;20457;-86
2023/07/01 00:13:19;;;;;;;5.93;4.90;;;21.80;71.80;;;;;;4987355;28;20442;-88
2023/07/01 00:15:45;;;;;;;4.80;4.30;;;21.80;71.60;;;;;;4990027;28;20526;-87
2023/07/01 00:18:16;;;;;;;8.23;5.20;;;21.80;71.80;;;;;;4966208;28;20532;-88
2023/07/01 00:20:42;;;;;;;5.17;4.67;;;21.80;71.80;;;;;;4995784;28;20448;-88
2023/07/01 00:23:07;;;;;;;5.17;4.60;;;21.80;71.80;;;;;;4956090;28;20477;-86
2023/07/01 00:25:33;;;;;;;6.73;4.60;;;21.80;71.70;;;;;;4976384;28;20426;-88
2023/07/01 00:27:59;;;;;;;6.80;4.80;;;21.80;71.90;;;;;;4976252;28;20418;-86
2023/07/01 00:30:25;;;;;;;5.73;4.40;;;21.80;72.00;;;;;;4976319;28;20182;-89
2023/07/01 00:32:51;;;;;;;5.03;4.63;;;21.80;71.70;;;;;;4973860;28;20196;-88
2023/07/01 00:35:22;;;;;;;5.50;4.80;;;21.80;72.30;;;;;;4978533;28;20565;-88
2023/07/01 00:37:48;;;;;;;5.10;4.70;;;21.80;72.30;;;;;;4956803;28;20833;-89
2023/07/01 00:40:14;;;;;;;5.50;5.00;;;21.80;72.20;;;;;;4995355;28;20421;-89
2023/07/01 00:42:40;;;;;;;5.40;4.90;;;21.80;72.40;;;;;;4971768;28;20484;-87
2023/07/01 00:45:06;;;;;;;6.13;5.53;;;21.80;72.60;;;;;;4964013;28;20497;-88
2023/07/01 00:47:35;;;;;;;5.37;4.97;;;21.80;72.70;;;;;;4976717;28;20418;-87
2023/07/01 00:50:02;;;;;;;5.40;4.70;;;21.80;72.90;;;;;;4947632;28;20464;-87
2023/07/01 00:52:31;;;;;;;4.80;4.40;;;21.80;72.80;;;;;;4997112;28;20752;-88
2023/07/01 00:54:59;;;;;;;5.17;4.50;;;21.80;72.70;;;;;;4974308;28;20430;-88
2023/07/01 00:57:29;;;;;;;5.40;4.90;;;21.80;72.60;;;;;;4978579;28;21006;-87
2023/07/01 00:59:55;;;;;;;5.50;5.00;;;21.80;72.70;;;;;;4986598;28;20502;-88
2023/07/01 01:02:30;;;;;;;6.63;5.20;;;21.70;72.70;;;;;;4975328;28;20465;-88
2023/07/01 01:05:10;;;;;;;6.30;4.70;;;21.70;72.90;;;;;;4955183;28;20430;-86
2023/07/01 01:07:46;;;;;;;5.10;4.60;;;21.70;72.10;;;;;;4977424;28;20497;-86
2023/07/01 01:10:22;;;;;;;4.63;4.23;;;21.70;71.80;;;;;;4995114;28;20524;-89
2023/07/01 01:12:53;;;;;;;4.87;4.30;;;21.70;71.40;;;;;;4985808;28;20473;-87
2023/07/01 01:15:22;;;;;;;6.83;4.70;;;21.70;71.50;;;;;;4976207;28;20434;-88
2023/07/01 01:17:53;;;;;;;6.07;4.80;;;21.70;71.60;;;;;;4955486;28;20449;-88
2023/07/01 01:20:23;;;;;;;6.50;4.97;;;21.70;71.90;;;;;;4962621;28;20803;-88
2023/07/01 01:22:51;;;;;;;6.33;5.00;;;21.70;71.30;;;;;;4956539;28;20845;-88
2023/07/01 01:25:31;;;;;;;3.93;3.63;;;21.70;70.70;;;;;;4973186;28;20522;-82
2023/07/01 01:28:00;;;;;;;4.40;4.00;;;21.70;70.40;;;;;;4966899;28;20552;-82
2023/07/01 01:30:31;;;;;;;5.40;4.50;;;21.70;70.60;;;;;;4981101;28;20516;-82
2023/07/01 01:32:59;;;;;;;4.13;3.83;;;21.70;70.30;;;;;;4989267;28;20499;-83
2023/07/01 01:35:25;;;;;;;4.83;4.43;;;21.60;69.80;;;;;;4979518;28;20445;-82
2023/07/01 01:37:58;;;;;;;4.33;4.00;;;21.70;70.30;;;;;;4952906;28;20477;-82
2023/07/01 01:41:03;;;;;;;4.40;4.00;;;21.60;70.00;;;;;;4974220;28;20421;-82
2023/07/01 01:43:38;;;;;;;5.23;4.13;;;21.60;70.00;;;;;;4907053;28;20530;-83
2023/07/01 01:46:05;;;;;;;4.40;4.00;;;21.60;69.80;;;;;;4974481;28;20608;-82
2023/07/01 01:48:34;;;;;;;5.60;4.10;;;21.60;69.80;;;;;;4974762;28;20447;-83
2023/07/01 01:51:02;;;;;;;5.30;4.27;;;21.60;69.90;;;;;;4953650;28;20529;-83
2023/07/01 01:53:32;;;;;;;4.30;4.00;;;21.60;70.00;;;;;;4974003;28;20450;-82
2023/07/01 01:55:59;;;;;;;5.70;3.97;;;21.60;69.60;;;;;;4970099;28;20448;-83
2023/07/01 01:58:29;;;;;;;5.40;4.17;;;21.50;69.40;;;;;;4958263;28;20424;-83
2023/07/01 02:00:57;;;;;;;4.53;4.23;;;21.60;69.40;;;;;;4952935;28;20458;-83
2023/07/01 02:03:24;;;;;;;4.40;4.00;;;21.60;69.20;;;;;;4965447;28;20937;-83
2023/07/01 02:05:50;;;;;;;5.40;4.40;;;21.50;69.10;;;;;;4970900;28;20435;-82
2023/07/01 02:08:21;;;;;;;4.33;4.03;;;21.50;69.00;;;;;;4961904;28;20506;-82
2023/07/01 02:10:50;;;;;;;7.53;4.67;;;21.50;68.90;;;;;;4987136;28;20417;-82
2023/07/01 02:13:45;;;;;;;4.07;3.77;;;21.60;69.10;;;;;;4986921;28;20596;-80
2023/07/01 02:16:13;;;;;;;4.70;4.30;;;21.60;68.90;;;;;;4975178;28;20449;-79
2023/07/01 02:18:39;;;;;;;4.67;4.30;;;21.60;68.60;;;;;;4985937;28;20421;-80
2023/07/01 02:21:06;;;;;;;4.30;3.90;;;21.50;68.50;;;;;;4987971;28;20441;-80
2023/07/01 02:23:34;;;;;;;4.47;4.07;;;21.60;68.80;;;;;;4974173;28;20473;-80
2023/07/01 02:26:00;;;;;;;5.90;5.17;;;21.50;68.70;;;;;;4984250;28;20431;-80
2023/07/01 02:28:28;;;;;;;4.80;4.37;;;21.50;68.60;;;;;;4980474;28;20446;-80
2023/07/01 02:30:59;;;;;;;4.80;4.30;;;21.50;68.10;;;;;;4997152;28;20820;-80
2023/07/01 02:33:25;;;;;;;5.33;4.73;;;21.50;68.20;;;;;;4979069;28;20500;-80
2023/07/01 02:35:51;;;;;;;5.40;4.30;;;21.50;68.10;;;;;;4958664;28;20428;-80
2023/07/01 02:38:17;;;;;;;4.50;4.10;;;21.50;68.00;;;;;;4997379;28;20853;-80
2023/07/01 02:40:45;;;;;;;5.20;4.80;;;21.50;68.10;;;;;;4987546;28;20528;-80
2023/07/01 02:43:14;;;;;;;4.70;4.30;;;21.40;68.00;;;;;;4976520;28;20496;-80
2023/07/01 02:45:40;;;;;;;5.03;4.53;;;21.40;68.30;;;;;;4977466;28;20414;-80
2023/07/01 02:48:10;;;;;;;7.27;4.43;;;21.50;68.40;;;;;;4977523;28;20469;-80
2023/07/01 02:50:39;;;;;;;5.43;4.00;;;21.50;68.40;;;;;;4938079;28;20420;-80
2023/07/01 02:53:05;;;;;;;5.50;4.20;;;21.50;68.10;;;;;;4960486;28;20418;-80
2023/07/01 02:55:31;;;;;;;5.87;4.70;;;21.50;68.30;;;;;;4977296;28;20461;-80
2023/07/01 02:57:57;;;;;;;8.03;4.17;;;21.50;68.10;;;;;;4971810;28;20422;-81
2023/07/01 03:00:27;;;;;;;5.33;4.17;;;21.50;68.00;;;;;;4976260;28;20429;-80
2023/07/01 03:03:05;;;;;;;4.83;4.33;;;21.50;67.90;;;;;;4951740;29;20544;-80
2023/07/01 03:05:36;;;;;;;5.47;5.07;;;21.50;68.00;;;;;;4949010;28;20437;-80
2023/07/01 03:08:05;;;;;;;4.80;4.50;;;21.50;67.90;;;;;;4957985;28;20440;-80
2023/07/01 03:10:31;;;;;;;5.87;4.50;;;21.50;67.90;;;;;;4940855;29;20762;-79
2023/07/01 03:12:57;;;;;;;5.63;4.83;;;21.50;67.80;;;;;;4924884;29;20886;-80
2023/07/01 03:15:23;;;;;;;10.40;4.37;;;21.50;67.80;;;;;;4957596;29;20522;-80
2023/07/01 03:17:49;;;;;;;5.27;4.60;;;21.50;67.80;;;;;;4934937;29;20596;-80
2023/07/01 03:20:24;;;;;;;5.00;4.27;;;21.40;67.70;;;;;;4956568;29;20437;-81
2023/07/01 03:22:56;;;;;;;5.83;4.37;;;21.40;67.80;;;;;;4987492;28;20606;-80
2023/07/01 03:25:23;;;;;;;5.60;5.20;;;21.40;67.80;;;;;;4988397;28;20434;-80
2023/07/01 03:27:49;;;;;;;5.37;4.93;;;21.40;67.80;;;;;;4976734;28;20452;-81
2023/07/01 03:30:18;;;;;;;5.33;4.20;;;21.40;67.80;;;;;;4973783;28;20458;-80
2023/07/01 03:32:48;;;;;;;6.53;4.87;;;21.40;68.40;;;;;;4986380;28;20453;-80
2023/07/01 03:35:15;;;;;;;5.07;4.60;;;21.40;67.50;;;;;;4994734;28;21039;-80
2023/07/01 03:37:44;;;;;;;4.60;4.27;;;21.40;67.70;;;;;;4987999;28;20441;-80
2023/07/01 03:40:10;;;;;;;4.90;4.53;;;21.40;67.60;;;;;;4995433;28;20433;-80
2023/07/01 03:42:37;;;;;;;4.43;4.03;;;21.40;67.40;;;;;;4979387;28;20484;-80
2023/07/01 03:45:10;;;;;;;5.20;4.80;;;21.40;67.40;;;;;;4954301;28;20453;-81
2023/07/01 03:47:38;;;;;;;5.30;4.80;;;21.40;67.10;;;;;;4958606;28;20430;-80
2023/07/01 03:50:07;;;;;;;4.63;4.13;;;21.40;67.10;;;;;;4985863;28;20483;-80
2023/07/01 03:52:37;;;;;;;4.27;3.97;;;21.40;67.10;;;;;;4979918;28;20425;-80
2023/07/01 03:55:05;;;;;;;6.47;5.00;;;21.40;67.30;;;;;;4951308;29;20434;-80
2023/07/01 03:57:34;;;;;;;5.80;4.37;;;21.40;67.30;;;;;;4956313;28;20430;-81
2023/07/01 04:00:00;;;;;;;4.50;4.20;;;21.40;67.20;;;;;;4951065;29;20427;-81
2023/07/01 04:02:38;;;;;;;8.80;4.20;;;21.40;67.10;;;;;;4957995;28;21136;-82
2023/07/01 04:05:10;;;;;;;7.30;4.43;;;21.40;67.30;;;;;;4974549;28;20512;-82
2023/07/01 04:07:41;;;;;;;5.00;4.53;;;21.40;67.40;;;;;;4992223;28;20177;-82
2023/07/01 04:10:10;;;;;;;4.67;4.27;;;21.40;67.10;;;;;;4993769;28;20444;-82
2023/07/01 04:12:38;;;;;;;4.97;4.50;;;21.40;67.40;;;;;;4984166;28;20835;-81
2023/07/01 04:15:10;;;;;;;4.30;4.00;;;21.40;67.40;;;;;;4942230;28;21001;-82
2023/07/01 04:17:42;;;;;;;5.10;4.60;;;21.40;67.60;;;;;;4973966;28;20520;-82
2023/07/01 04:20:09;;;;;;;4.30;3.90;;;21.40;67.60;;;;;;4973502;28;20438;-82
2023/07/01 04:22:36;;;;;;;4.70;4.03;;;21.40;67.70;;;;;;4980135;28;20476;-82
2023/07/01 04:25:09;;;;;;;5.20;4.20;;;21.30;67.50;;;;;;4938257;29;20777;-82
2023/07/01 04:27:38;;;;;;;5.03;4.53;;;21.40;67.60;;;;;;4988950;28;21180;-81
2023/07/01 04:30:07;;;;;;;5.13;4.47;;;21.40;67.50;;;;;;4995484;28;20450;-81
2023/07/01 04:32:34;;;;;;;4.73;4.33;;;21.40;67.60;;;;;;4994703;28;20499;-81
2023/07/01 04:35:00;;;;;;;4.90;4.50;;;21.40;67.20;;;;;;4968287;28;20430;-81
2023/07/01 04:37:26;;;;;;;5.80;4.90;;;21.40;67.20;;;;;;4972420;28;20446;-82
2023/07/01 04:39:55;;;;;;;5.73;4.53;;;21.40;66.90;;;;;;4966677;28;20453;-85
2023/07/01 04:42:21;;;;;;;8.63;4.30;;;21.30;67.00;;;;;;4952330;28;20443;-79
2023/07/01 04:44:53;;;;;;;11.27;4.80;;;21.30;67.60;;;;;;4963180;28;20214;-79
2023/07/01 04:47:23;;;;;;;7.27;4.50;;;21.40;67.80;;;;;;4972188;28;20812;-79
2023/07/01 04:49:52;;;;;;;7.10;4.73;;;21.40;67.60;;;;;;4965990;28;20984;-80
2023/07/01 04:52:23;;;;;;;12.90;4.90;;;21.50;67.40;;;;;;4971713;28;20449;-79
2023/07/01 04:54:52;;;;;;;7.43;4.80;;;21.60;67.20;;;;;;4992122;28;20463;-80
2023/07/01 04:57:18;;;;;;;5.60;4.63;;;21.70;67.00;;;;;;5002826;28;20622;-77
2023/07/01 04:59:46;;;;;;;7.17;4.80;;;21.70;66.60;;;;;;4992926;28;21068;-79
2023/07/01 05:02:12;;;;;;;6.43;4.50;;;21.80;66.50;;;;;;4991714;28;20457;-79
2023/07/01 05:04:38;;;;;;;4.90;4.27;;;21.90;66.30;;;;;;4969197;28;20437;-78
2023/07/01 05:07:05;;;;;;;7.60;4.73;;;21.90;66.10;;;;;;4973149;28;20449;-79
2023/07/01 05:09:33;;;;;;;6.40;4.50;;;22.00;66.00;;;;;;4964990;28;20442;-81
2023/07/01 05:11:59;;;;;;;12.67;5.00;;;22.10;65.90;;;;;;4976623;28;20485;-80
2023/07/01 05:14:25;;;;;;;5.13;4.57;;;22.10;65.80;;;;;;4972548;28;20530;-79
2023/07/01 05:16:53;;;;;;;4.87;4.50;;;22.10;65.50;;;;;;4992160;28;20201;-79
2023/07/01 05:19:19;;;;;;;5.57;5.03;;;22.20;65.50;;;;;;4992479;28;20580;-80
2023/07/01 05:21:52;;;;;;;5.83;5.17;;;22.20;65.30;;;;;;4991981;28;20209;-79
2023/07/01 05:24:20;;;;;;;5.13;4.63;;;22.30;65.30;;;;;;4979941;28;20463;-79
2023/07/01 05:26:50;;;;;;;4.73;4.23;;;22.30;65.20;;;;;;4966055;28;20759;-79
2023/07/01 05:29:20;;;;;;;5.07;4.33;;;22.30;65.00;;;;;;4972812;28;20832;-80
2023/07/01 05:31:55;;;;;;;5.87;4.73;;;22.40;65.00;;;;;;4966519;28;20535;-79
2023/07/01 05:34:23;;;;;;;4.20;3.90;;;22.40;65.00;;;;;;4977022;28;20742;-79
2023/07/01 05:36:49;;;;;;;4.87;4.47;;;22.40;65.00;;;;;;4974230;28;20453;-80
2023/07/01 05:39:17;;;;;;;6.30;4.50;;;22.40;64.90;;;;;;4971631;28;20436;-82
2023/07/01 05:41:46;;;;;;;5.43;4.93;;;22.50;64.90;;;;;;4948975;28;20421;-80
2023/07/01 05:44:15;;;;;;;5.73;5.27;;;22.50;64.80;;;;;;4971283;28;20798;-79
2023/07/01 05:46:40;;;;;;;4.77;4.30;;;22.50;64.70;;;;;;4972495;28;20472;-79
2023/07/01 05:49:07;;;;;;;5.00;4.30;;;22.50;64.60;;;;;;4972592;28;20192;-79
2023/07/01 05:51:34;;;;;;;5.20;4.70;;;22.50;64.60;;;;;;4963874;28;20217;-79
2023/07/01 05:53:59;;;;;;;5.90;5.40;;;22.60;64.70;;;;;;4973901;28;20572;-79
2023/07/01 05:56:26;;;;;;;5.27;4.80;;;22.60;64.70;;;;;;4975109;28;20526;-79
2023/07/01 05:58:51;;;;;;;4.50;4.10;;;22.60;64.70;;;;;;4956287;28;20207;-78
2023/07/01 06:01:22;;;;;;;4.63;4.20;;;22.60;65.00;;;;;;4957540;28;20759;-79
2023/07/01 06:03:48;;;;;;;4.77;4.37;;;22.60;64.90;;;;;;4965074;28;20461;-80
2023/07/01 06:06:16;;;;;;;6.37;4.50;;;22.60;65.10;;;;;;4995848;28;20449;-79
2023/07/01 06:08:42;;;;;;;4.77;4.37;;;22.60;65.10;;;;;;4989008;28;20479;-79
2023/07/01 06:11:10;;;;;;;4.90;4.60;;;22.70;65.50;;;;;;4999392;28;20424;-79
2023/07/01 06:13:45;;;;;;;5.87;4.90;;;22.70;66.00;;;;;;5000267;28;20436;-79
2023/07/01 06:16:16;;;;;;;4.70;4.30;;;22.70;66.40;;;;;;4999136;28;20400;-78
2023/07/01 06:18:47;;;;;;;5.73;3.80;;;22.70;66.70;;;;;;4988369;28;20433;-79
2023/07/01 06:21:13;;;;;;;6.37;4.43;;;22.60;67.10;;;;;;4978834;28;20433;-78
2023/07/01 06:23:41;;;;;;;8.93;4.80;;;22.70;67.50;;;;;;4972744;28;20536;-79
2023/07/01 06:26:07;;;;;;;4.53;4.23;;;22.70;67.70;;;;;;4981608;28;20418;-78
2023/07/01 06:28:35;;;;;;;4.87;4.47;;;22.70;68.00;;;;;;4979169;28;20190;-77
2023/07/01 06:31:03;;;;;;;5.07;4.67;;;22.70;68.50;;;;;;4985444;28;20414;-79
2023/07/01 06:33:58;;;;;;;4.70;4.30;;;22.60;69.50;;;;;;4957330;29;20466;-79
2023/07/01 06:36:24;;;;;;;5.10;4.70;;;22.70;69.10;;;;;;4938347;29;20439;-79
2023/07/01 06:38:52;;;;;;;4.43;4.03;;;22.70;69.30;;;;;;4934111;29;20434;-79
2023/07/01 06:41:21;;;;;;;5.07;4.40;;;22.70;69.40;;;;;;4958034;28;20456;-78
2023/07/01 06:43:47;;;;;;;4.80;4.40;;;22.70;69.60;;;;;;4989814;28;20494;-79
2023/07/01 06:46:15;;;;;;;4.63;4.30;;;22.70;69.60;;;;;;4991379;28;20420;-78
2023/07/01 06:48:42;;;;;;;5.03;4.63;;;22.70;69.80;;;;;;4994750;28;20476;-78
2023/07/01 06:51:13;;;;;;;4.60;4.10;;;22.70;69.90;;;;;;4994742;28;20440;-78
2023/07/01 06:53:40;;;;;;;4.40;4.00;;;22.70;70.00;;;;;;4977577;28;20930;-78
2023/07/01 06:56:07;;;;;;;6.13;5.70;;;22.70;70.00;;;;;;4970590;28;20425;-78
2023/07/01 06:58:37;;;;;;;5.47;5.07;;;22.70;70.30;;;;;;4983134;28;20435;-78
2023/07/01 07:01:05;;;;;;;5.00;4.20;;;22.70;70.10;;;;;;4975046;28;20444;-78
2023/07/01 07:03:37;;;;;;;4.40;4.00;;;22.70;70.30;;;;;;4969376;28;20453;-78
2023/07/01 07:06:08;;;;;;;4.03;3.70;;;22.70;70.70;;;;;;4996165;28;20409;-79
2023/07/01 07:08:37;;;;;;;4.03;3.70;;;22.70;70.30;;;;;;4988643;28;20517;-79
2023/07/01 07:11:07;;;;;;;4.20;3.90;;;22.70;70.30;;;;;;4993172;28;21103;-79
2023/07/01 07:13:33;;;;;;;4.80;4.50;;;22.70;70.30;;;;;;4989171;28;20435;-79
2023/07/01 07:15:59;;;;;;;5.93;4.57;;;22.70;70.30;;;;;;4988639;28;20611;-77
2023/07/01 07:18:27;;;;;;;4.27;4.03;;;22.70;70.20;;;;;;4990293;28;20521;-78
2023/07/01 07:20:53;;;;;;;3.67;3.47;;;22.70;70.40;;;;;;4974609;28;20876;-79
2023/07/01 07:23:18;;;;;;;5.00;4.60;;;22.70;70.60;;;;;;4969168;28;20217;-80
2023/07/01 07:25:44;;;;;;;4.30;4.00;;;22.70;70.60;;;;;;4974440;28;20232;-79
2023/07/01 07:28:10;;;;;;;4.80;4.40;;;22.70;70.60;;;;;;4972521;28;20475;-78
2023/07/01 07:31:04;;;;;;;4.23;3.93;;;22.70;70.60;;;;;;4955892;28;20214;-78
2023/07/01 07:33:30;;;;;;;4.10;3.77;;;22.70;70.70;;;;;;4966907;28;20441;-79
2023/07/01 07:35:56;;;;;;;4.33;3.93;;;22.70;70.70;;;;;;4960376;28;20436;-79
2023/07/01 07:38:22;;;;;;;4.63;4.20;;;22.70;70.80;;;;;;4955936;28;20190;-79
2023/07/01 07:40:50;;;;;;;6.73;4.00;;;22.70;70.70;;;;;;4967905;28;20501;-79
2023/07/01 07:43:19;;;;;;;4.50;4.10;;;22.70;70.90;;;;;;4969019;28;20489;-78
2023/07/01 07:45:47;;;;;;;4.13;3.93;;;22.70;71.00;;;;;;4974258;28;20887;-79
2023/07/01 07:48:16;;;;;;;4.10;3.80;;;22.70;70.90;;;;;;4974271;28;20429;-78
2023/07/01 07:50:45;;;;;;;5.53;5.10;;;22.70;70.80;;;;;;4955820;28;20435;-79
2023/07/01 07:53:28;;;;;;;4.63;4.33;;;22.70;70.70;;;;;;4964819;28;20431;-78
2023/07/01 07:55:56;;;;;;;4.70;4.30;;;22.70;71.00;;;;;;4979543;28;20422;-78
2023/07/01 07:58:25;;;;;;;6.43;4.27;;;22.70;70.90;;;;;;4971665;28;20458;-77
2023/07/01 08:00:50;;;;;;;4.10;3.80;;;22.70;71.10;;;;;;4954417;28;20434;-78
2023/07/01 08:03:16;;;;;;;4.47;4.07;;;22.70;71.10;;;;;;4972658;28;20472;-79
2023/07/01 08:05:42;;;;;;;4.37;4.13;;;22.70;71.00;;;;;;4956004;28;20584;-79
2023/07/01 08:08:08;;;;;;;4.63;4.27;;;22.80;71.40;;;;;;4981834;28;21061;-78
2023/07/01 08:10:34;;;;;;;4.30;4.00;;;22.80;71.60;;;;;;4968186;28;20446;-78
2023/07/01 08:13:02;;;;;;;4.27;3.87;;;22.80;72.60;;;;;;4968265;28;20458;-79
2023/07/01 08:15:37;;;;;;;4.80;4.40;;;22.80;71.70;;;;;;4973603;28;20414;-79
2023/07/01 08:18:03;;;;;;;5.37;4.87;;;22.80;71.70;;;;;;4977803;28;20521;-79
2023/07/01 08:20:31;;;;;;;3.90;3.60;;;22.80;71.80;;;;;;4972718;28;20842;-78
2023/07/01 08:23:00;;;;;;;4.30;4.00;;;22.80;71.70;;;;;;4986858;28;20765;-78
2023/07/01 08:25:26;;;;;;;5.83;4.43;;;22.80;71.70;;;;;;4992644;28;20484;-78
2023/07/01 08:27:53;;;;;;;4.67;3.93;;;22.70;71.90;;;;;;4974237;28;20172;-78
2023/07/01 08:30:22;;;;;;;4.37;4.07;;;22.80;72.30;;;;;;4974519;28;20448;-78
2023/07/01 08:32:48;;;;;;;4.83;4.10;;;22.80;72.40;;;;;;4986410;28;20790;-79
2023/07/01 08:35:14;;;;;;;4.53;4.13;;;22.80;72.50;;;;;;4993075;28;20464;-79
2023/07/01 08:37:45;;;;;;;4.20;3.90;;;22.80;72.50;;;;;;4992914;28;20440;-78
2023/07/01 08:40:13;;;;;;;4.17;3.87;;;22.80;72.50;;;;;;4973922;28;20516;-79
2023/07/01 08:42:45;;;;;;;4.73;4.00;;;22.70;72.40;;;;;;4949451;28;20463;-80
2023/07/01 08:45:11;;;;;;;4.13;3.77;;;22.80;72.50;;;;;;4974690;28;20463;-78
2023/07/01 08:47:39;;;;;;;4.67;4.37;;;22.70;72.20;;;;;;4981640;28;20476;-78
2023/07/01 08:50:07;;;;;;;4.90;3.67;;;22.70;72.30;;;;;;4993268;28;20433;-78
2023/07/01 08:52:47;;;;;;;3.90;3.70;;;22.80;73.00;;;;;;4969019;28;20449;-79
2023/07/01 08:55:15;;;;;;;3.83;3.53;;;22.70;72.80;;;;;;4976537;28;20972;-78
2023/07/01 08:57:44;;;;;;;4.10;3.80;;;22.80;73.30;;;;;;4968822;28;20438;-79
2023/07/01 09:00:13;;;;;;;4.13;3.83;;;22.80;73.50;;;;;;4956925;28;20428;-78
2023/07/01 09:02:44;;;;;;;3.60;3.30;;;22.80;73.50;;;;;;4988099;28;20294;-79
2023/07/01 09:05:12;;;;;;;3.93;3.63;;;22.80;73.90;;;;;;4966421;28;20450;-77
2023/07/01 09:07:40;;;;;;;3.70;3.50;;;22.80;74.10;;;;;;4967864;28;20458;-78
2023/07/01 09:10:12;;;;;;;4.00;3.70;;;22.70;74.00;;;;;;4984489;28;20526;-79
2023/07/01 09:12:38;;;;;;;3.63;3.33;;;22.80;74.20;;;;;;4961025;28;20453;-77
2023/07/01 09:15:06;;;;;;;3.90;3.33;;;22.80;74.40;;;;;;4967943;28;20438;-79
2023/07/01 09:21:28;;;;;;;3.50;3.30;;;22.80;75.20;;;;;;4961102;28;20486;-79
2023/07/01 09:23:56;;;;;;;3.33;3.13;;;22.70;74.80;;;;;;4973833;28;20477;-79
2023/07/01 09:26:22;;;;;;;4.00;3.70;;;22.70;74.80;;;;;;4970306;28;20410;-80
2023/07/01 09:28:49;;;;;;;4.00;3.70;;;22.70;74.80;;;;;;4954594;28;20459;-80
2023/07/01 09:31:16;;;;;;;3.50;3.30;;;22.70;74.40;;;;;;4978521;28;20582;-79
2023/07/01 09:34:04;;;;;;;3.97;3.67;;;22.80;75.00;;;;;;4986380;28;20430;-79
2023/07/01 09:36:32;;;;;;;4.57;4.27;;;22.70;75.30;;;;;;4944033;29;20426;-93
2023/07/01 09:39:00;;;;;;;3.90;3.60;;;22.80;75.40;;;;;;4939474;29;20447;-92
2023/07/01 09:42:17;;;;;;;3.67;3.47;;;22.80;75.20;;;;;;4956890;28;20487;-93
2023/07/01 09:45:07;;;;;;;3.83;3.63;;;22.80;74.60;;;;;;4954527;29;20451;-91
2023/07/01 09:47:33;;;;;;;4.00;3.60;;;22.80;74.70;;;;;;4959961;29;20402;-91
2023/07/01 09:50:01;;;;;;;4.40;4.20;;;22.80;75.00;;;;;;4943854;29;20437;-91
2023/07/01 09:52:32;;;;;;;3.80;3.50;;;22.80;75.00;;;;;;4945377;29;20449;-91
2023/07/01 09:55:01;;;;;;;4.10;3.80;;;22.80;76.00;;;;;;4940578;28;20777;-95
2023/07/01 09:57:27;;;;;;;3.93;3.63;;;22.80;75.70;;;;;;4966955;28;20425;-93
2023/07/01 09:59:53;;;;;;;3.10;2.90;;;22.80;75.50;;;;;;4977513;28;20429;-93
2023/07/01 10:02:44;;;;;;;3.93;3.73;;;22.80;75.40;;;;;;4966929;28;20433;-94
2023/07/01 10:05:46;;;;;;;3.70;3.50;;;22.80;75.70;;;;;;4954801;28;20924;-94
2023/07/01 10:09:29;;;;;;;3.40;3.20;;;22.70;76.90;;;;;;4948210;28;20445;-95
2023/07/01 10:13:22;;;;;;;3.53;3.33;;;22.80;76.50;;;;;;4933171;29;20506;-95
2023/07/01 10:37:12;;;;;;;3.80;3.60;;;22.70;77.70;;;;;;4813246;29;20431;-95
2023/07/01 10:39:58;;;;;;;3.40;3.10;;;22.70;77.80;;;;;;4821103;29;20834;-94
2023/07/01 10:42:34;;;;;;;3.03;2.83;;;22.70;78.00;;;;;;4858927;29;20491;-94
2023/07/01 10:45:10;;;;;;;3.93;3.60;;;22.70;78.00;;;;;;4906319;29;20459;-93
2023/07/01 10:47:54;;;;;;;3.93;3.73;;;22.70;78.40;;;;;;4891825;29;21025;-95
2023/07/01 10:50:20;;;;;;;4.20;3.90;;;22.70;78.40;;;;;;4907571;29;20444;-93
2023/07/01 10:53:01;;;;;;;3.40;3.10;;;22.70;78.80;;;;;;4885286;29;20456;-93
2023/07/01 10:56:08;;;;;;;3.87;3.67;;;22.70;78.40;;;;;;4919785;29;20451;-93
2023/07/01 10:58:34;;;;;;;3.70;3.50;;;22.80;79.10;;;;;;4888493;29;20436;-92
2023/07/01 11:01:01;;;;;;;3.40;3.20;;;22.70;79.10;;;;;;4884956;29;20568;-94
2023/07/01 11:03:33;;;;;;;3.40;3.20;;;22.70;78.40;;;;;;4854211;29;20533;-93
2023/07/01 11:06:00;;;;;;;3.07;2.87;;;22.70;78.80;;;;;;4869935;29;21019;-91
2023/07/01 11:08:27;;;;;;;3.80;3.20;;;22.80;78.90;;;;;;4921617;29;20524;-91
2023/07/01 11:10:53;;;;;;;3.30;3.10;;;22.70;79.00;;;;;;4922039;29;20522;-93
2023/07/01 11:13:19;;;;;;;3.13;3.03;;;22.70;79.00;;;;;;4926599;29;20435;-94
2023/07/01 11:16:02;;;;;;;2.90;2.80;;;22.80;79.00;;;;;;4921021;29;20427;-93
2023/07/01 11:18:41;;;;;;;3.40;3.20;;;22.80;79.20;;;;;;4927058;29;20455;-95
2023/07/01 11:21:10;;;;;;;3.20;3.00;;;22.80;79.20;;;;;;4929676;29;20443;-95
2023/07/01 11:23:37;;;;;;;3.40;3.20;;;22.80;79.30;;;;;;4948735;28;20616;-93
2023/07/01 11:26:03;;;;;;;3.77;3.57;;;22.70;79.40;;;;;;4964798;28;20461;-92
2023/07/01 11:28:33;;;;;;;3.67;3.37;;;22.80;79.30;;;;;;4954628;29;20438;-93
2023/07/01 11:31:17;;;;;;;3.37;3.20;;;22.80;79.40;;;;;;4943018;28;20435;-89
2023/07/01 11:33:51;;;;;;;3.77;3.40;;;22.80;79.50;;;;;;4944706;29;20477;-92
2023/07/01 11:36:36;;;;;;;3.43;3.23;;;22.70;79.40;;;;;;4930439;28;20729;-92
2023/07/01 11:39:13;;;;;;;3.37;3.27;;;22.80;79.80;;;;;;4941726;28;20774;-93
2023/07/01 11:41:44;;;;;;;3.33;3.03;;;22.80;80.30;;;;;;4947272;29;20423;-93
2023/07/01 11:44:19;;;;;;;3.13;3.03;;;22.80;80.20;;;;;;4926897;29;20459;-94
2023/07/01 11:46:46;;;;;;;3.33;3.10;;;22.70;79.80;;;;;;4937495;29;20450;-94
2023/07/01 11:49:31;;;;;;;3.40;3.20;;;22.80;79.80;;;;;;4945686;29;20457;-93
2023/07/01 11:52:02;;;;;;;2.97;2.77;;;22.80;79.40;;;;;;4941521;29;20485;-91
2023/07/01 11:54:48;;;;;;;3.23;3.03;;;22.70;79.40;;;;;;4929432;29;20447;-92
2023/07/01 11:57:19;;;;;;;3.33;3.13;;;22.70;79.90;;;;;;4942215;29;20449;-94
2023/07/01 11:59:53;;;;;;;2.80;2.60;;;22.80;80.40;;;;;;4953320;29;20444;-94
2023/07/01 12:02:30;;;;;;;3.33;3.13;;;22.80;80.40;;;;;;4978560;28;20467;-94
2023/07/01 12:04:56;;;;;;;2.80;2.70;;;22.70;80.00;;;;;;4941930;29;20449;-95
2023/07/01 12:07:22;;;;;;;3.20;3.00;;;22.80;79.80;;;;;;4937337;29;20426;-95
2023/07/01 12:09:48;;;;;;;3.27;3.03;;;22.80;80.00;;;;;;4939015;29;20482;-94
2023/07/01 12:12:33;;;;;;;3.13;2.83;;;22.80;80.20;;;;;;4957785;28;20473;-93
2023/07/01 12:15:03;;;;;;;3.00;2.80;;;22.80;80.10;;;;;;4976035;28;20465;-93
2023/07/01 12:17:31;;;;;;;3.03;2.93;;;22.80;80.00;;;;;;4996886;28;20909;-93
2023/07/01 12:20:21;;;;;;;2.73;2.60;;;22.80;80.10;;;;;;4976247;28;20413;-94
2023/07/01 12:22:47;;;;;;;3.20;3.00;;;22.80;80.20;;;;;;4997346;28;20946;-94
2023/07/01 12:25:14;;;;;;;2.73;2.53;;;22.80;79.80;;;;;;4967339;28;20421;-93
2023/07/01 12:27:40;;;;;;;3.30;3.20;;;22.80;79.90;;;;;;4960764;28;20429;-95
2023/07/01 12:30:08;;;;;;;3.10;2.90;;;22.80;80.00;;;;;;4966258;28;20450;-93
2023/07/01 12:32:36;;;;;;;2.70;2.60;;;22.80;80.50;;;;;;4962963;28;20425;-89
2023/07/01 12:35:02;;;;;;;2.90;2.80;;;22.80;80.80;;;;;;4982715;28;20428;-92
2023/07/01 12:37:29;;;;;;;3.03;2.83;;;22.80;80.60;;;;;;4955827;28;20494;-94
2023/07/01 12:39:56;;;;;;;2.90;2.70;;;22.80;80.90;;;;;;4943519;28;20426;-95
2023/07/01 12:42:24;;;;;;;2.70;2.50;;;22.80;80.40;;;;;;4945607;28;20450;-94
2023/07/01 12:44:50;;;;;;;2.80;2.70;;;22.80;81.60;;;;;;4939587;28;20793;-94
2023/07/01 12:47:16;;;;;;;2.93;2.83;;;22.80;81.40;;;;;;4944971;28;20438;-93
2023/07/01 12:49:42;;;;;;;3.40;3.30;;;22.80;81.40;;;;;;4938067;28;20933;-93
2023/07/01 12:52:08;;;;;;;2.70;2.50;;;22.80;81.40;;;;;;4945003;28;20424;-95
2023/07/01 12:54:34;;;;;;;3.13;2.93;;;22.80;81.00;;;;;;4970973;28;20896;-94
2023/07/01 12:57:01;;;;;;;3.80;3.60;;;22.80;80.50;;;;;;4964284;28;20429;-94
2023/07/01 12:59:27;;;;;;;3.83;3.63;;;22.80;81.00;;;;;;4984006;28;20429;-94
2023/07/01 13:01:53;;;;;;;2.80;2.70;;;22.80;80.90;;;;;;4961197;28;20456;-92
2023/07/01 13:04:19;;;;;;;3.00;2.70;;;22.80;81.00;;;;;;4997673;28;20515;-93
2023/07/01 13:06:47;;;;;;;3.73;2.97;;;22.80;80.90;;;;;;4977557;28;20445;-93
2023/07/01 13:09:15;;;;;;;3.47;3.27;;;22.80;81.20;;;;;;4976170;28;20534;-92
2023/07/01 13:11:41;;;;;;;3.00;2.87;;;22.80;81.40;;;;;;4972848;28;20417;-92
2023/07/01 13:14:10;;;;;;;2.87;2.67;;;22.80;81.30;;;;;;4979147;28;20421;-93
2023/07/01 13:16:38;;;;;;;2.80;2.70;;;22.80;81.80;;;;;;4955763;28;20858;-90
2023/07/01 13:19:09;;;;;;;2.93;2.83;;;22.80;81.60;;;;;;4962987;28;20429;-90
2023/07/01 13:21:46;;;;;;;3.30;3.00;;;22.80;81.30;;;;;;4979288;28;21049;-91
2023/07/01 13:24:13;;;;;;;2.50;2.40;;;22.80;82.60;;;;;;4959585;28;20460;-94
2023/07/01 13:26:52;;;;;;;3.13;2.93;;;22.80;83.40;;;;;;4933365;29;20443;-89